Time;durP1;ratioP1;P1;durP2;ratioP2;P2;SDS_P1;SDS_P2;PMS_P1;PMS_P2;Temp;Humidity;BMP_temperature;BMP_pressure;BME280_temperature;BME280_humidity;BME280_pressure;Samples;Min_cycle;Max_cycle;Signal;HPM_P1;HPM_P2
2023/03/02 00:01:21;;;;;;;14.52;9.20;;;1.10;99.90;;;;;;5028192;28;20224;-69
2023/03/02 00:03:48;;;;;;;15.88;10.23;;;1.10;99.90;;;;;;5028570;28;20535;-69
2023/03/02 00:06:15;;;;;;;14.85;8.13;;;1.00;99.90;;;;;;5028050;28;20216;-69
2023/03/02 00:08:42;;;;;;;16.48;10.00;;;1.00;99.90;;;;;;5028029;28;20226;-69
2023/03/02 00:11:08;;;;;;;15.07;9.07;;;0.90;99.90;;;;;;5019894;28;20304;-69
2023/03/02 00:13:38;;;;;;;15.80;9.88;;;0.90;99.90;;;;;;5027961;28;20661;-69
2023/03/02 00:16:06;;;;;;;18.13;9.85;;;0.90;99.90;;;;;;5028089;28;20210;-69
2023/03/02 00:18:32;;;;;;;16.85;10.38;;;0.90;99.90;;;;;;5019153;28;20240;-70
2023/03/02 00:20:59;;;;;;;16.92;10.00;;;0.90;99.90;;;;;;5028586;28;20221;-69
2023/03/02 00:23:26;;;;;;;15.57;8.82;;;0.90;99.90;;;;;;5026939;28;20257;-69
2023/03/02 00:25:53;;;;;;;16.08;9.48;;;0.90;99.90;;;;;;5028128;28;20632;-69
2023/03/02 00:28:20;;;;;;;13.75;9.13;;;0.90;99.90;;;;;;5027989;28;20226;-69
2023/03/02 00:30:48;;;;;;;12.63;9.05;;;0.90;99.90;;;;;;5027999;28;20570;-69
2023/03/02 00:33:15;;;;;;;14.52;8.70;;;0.90;99.90;;;;;;5027132;28;20565;-69
2023/03/02 00:35:42;;;;;;;16.10;9.95;;;0.90;99.90;;;;;;5028177;28;20201;-69
2023/03/02 00:38:08;;;;;;;16.58;9.68;;;0.80;99.90;;;;;;5027820;28;20229;-69
2023/03/02 00:40:36;;;;;;;15.10;8.75;;;0.80;99.90;;;;;;5023469;28;20201;-69
2023/03/02 00:43:03;;;;;;;19.58;9.65;;;0.80;99.90;;;;;;5028783;28;20205;-69
2023/03/02 00:45:30;;;;;;;15.15;8.95;;;0.80;99.90;;;;;;5040980;28;20198;-69
2023/03/02 00:47:58;;;;;;;19.30;9.73;;;0.80;99.90;;;;;;5049965;28;20621;-69
2023/03/02 00:50:24;;;;;;;15.57;9.63;;;0.80;99.90;;;;;;5049592;28;20205;-69
2023/03/02 00:52:51;;;;;;;17.67;10.20;;;0.80;99.90;;;;;;5036262;28;20317;-69
2023/03/02 00:55:18;;;;;;;14.07;9.57;;;0.80;99.90;;;;;;5046693;28;20201;-69
2023/03/02 00:57:54;;;;;;;15.23;10.73;;;0.80;99.90;;;;;;5030633;28;20220;-70
2023/03/02 01:00:21;;;;;;;17.13;10.32;;;0.70;99.90;;;;;;5029718;28;20703;-69
2023/03/02 01:02:48;;;;;;;17.05;10.35;;;0.70;99.90;;;;;;5043356;28;20207;-69
2023/03/02 01:05:17;;;;;;;18.50;9.63;;;0.70;99.90;;;;;;5049938;28;20212;-70
2023/03/02 01:07:43;;;;;;;12.32;8.57;;;0.60;99.90;;;;;;5049918;28;20939;-70
2023/03/02 01:10:11;;;;;;;15.20;9.27;;;0.60;99.90;;;;;;5050015;28;20577;-70
2023/03/02 01:12:38;;;;;;;15.80;9.43;;;0.60;99.90;;;;;;5049846;28;20730;-70
2023/03/02 01:15:07;;;;;;;17.73;10.23;;;0.60;99.90;;;;;;5049205;28;20664;-69
2023/03/02 01:17:34;;;;;;;17.10;10.38;;;0.60;99.90;;;;;;5049817;28;20252;-69
2023/03/02 01:20:02;;;;;;;18.20;10.18;;;0.60;99.90;;;;;;5050050;28;20205;-70
2023/03/02 01:22:30;;;;;;;17.88;9.93;;;0.60;99.90;;;;;;5047386;28;20197;-69
2023/03/02 01:24:57;;;;;;;16.33;9.52;;;0.60;99.90;;;;;;5043651;28;20201;-70
2023/03/02 01:27:24;;;;;;;14.20;9.27;;;0.60;99.90;;;;;;5049827;28;20653;-70
2023/03/02 01:29:51;;;;;;;19.55;10.70;;;0.50;99.90;;;;;;5035519;28;20208;-70
2023/03/02 01:32:17;;;;;;;17.73;9.98;;;0.50;99.90;;;;;;5038922;28;20212;-69
2023/03/02 01:34:44;;;;;;;15.70;10.23;;;0.50;99.90;;;;;;5049369;28;20201;-70
2023/03/02 01:37:11;;;;;;;14.45;9.07;;;0.50;99.90;;;;;;5049281;28;20229;-70
2023/03/02 01:39:41;;;;;;;18.83;10.07;;;0.40;99.90;;;;;;5115285;22;20220;-72
2023/03/02 01:42:08;;;;;;;14.77;8.90;;;0.30;99.90;;;;;;5028269;28;20221;-74
2023/03/02 01:44:42;;;;;;;15.63;10.02;;;0.30;99.90;;;;;;5029760;28;20209;-74
2023/03/02 01:47:19;;;;;;;16.10;8.88;;;0.30;99.90;;;;;;5029498;28;20395;-74
2023/03/02 01:49:50;;;;;;;16.88;9.85;;;0.20;99.90;;;;;;5050558;28;20196;-74
2023/03/02 01:52:18;;;;;;;21.60;11.15;;;0.20;99.90;;;;;;5051185;28;20204;-74
2023/03/02 01:54:48;;;;;;;15.30;9.55;;;0.20;99.90;;;;;;5051117;28;20201;-73
2023/03/02 01:57:21;;;;;;;22.85;9.73;;;0.20;99.90;;;;;;5051340;28;20221;-73
2023/03/02 01:59:49;;;;;;;15.80;9.30;;;0.20;99.90;;;;;;5051671;28;20307;-74
2023/03/02 02:02:16;;;;;;;13.20;9.43;;;0.20;99.90;;;;;;5051046;28;20208;-74
2023/03/02 02:04:46;;;;;;;20.10;10.45;;;0.20;99.90;;;;;;5050942;28;20208;-74
2023/03/02 02:07:13;;;;;;;15.40;8.85;;;0.10;99.90;;;;;;5050833;28;20216;-74
2023/03/02 02:09:43;;;;;;;15.63;9.38;;;0.10;99.90;;;;;;5051091;28;20559;-74
2023/03/02 02:12:16;;;;;;;16.13;10.82;;;0.10;99.90;;;;;;5051184;28;20209;-74
2023/03/02 02:14:43;;;;;;;16.08;10.57;;;0.10;99.90;;;;;;5049919;28;20204;-74
2023/03/02 02:17:12;;;;;;;13.48;9.43;;;0.10;99.90;;;;;;5049914;28;20229;-74
2023/03/02 02:19:49;;;;;;;17.52;10.18;;;0.10;99.90;;;;;;5037256;28;20224;-74
2023/03/02 02:22:22;;;;;;;20.10;10.32;;;0.10;99.90;;;;;;5029765;28;20259;-74
2023/03/02 02:24:57;;;;;;;15.93;8.02;;;0.10;99.90;;;;;;5029433;28;20216;-75
2023/03/02 02:27:32;;;;;;;13.70;8.73;;;0.10;99.90;;;;;;5029915;28;20232;-75
2023/03/02 02:30:01;;;;;;;21.75;11.40;;;0.10;99.90;;;;;;5029597;28;20201;-74
2023/03/02 02:32:32;;;;;;;18.33;10.80;;;0.10;99.90;;;;;;5040359;28;20211;-75
2023/03/02 02:35:04;;;;;;;16.67;9.65;;;0.10;99.90;;;;;;5049608;28;20216;-74
2023/03/02 02:37:35;;;;;;;14.10;9.60;;;0.00;99.90;;;;;;5049873;28;20232;-74
2023/03/02 02:40:07;;;;;;;18.90;10.93;;;0.00;99.90;;;;;;5050427;28;20221;-74
2023/03/02 02:42:37;;;;;;;17.17;10.63;;;0.00;99.90;;;;;;5051628;28;20231;-74
2023/03/02 02:45:06;;;;;;;18.80;9.95;;;0.00;99.90;;;;;;5053334;28;20201;-74
2023/03/02 02:47:34;;;;;;;21.40;10.80;;;0.00;99.90;;;;;;5041623;28;20225;-74
2023/03/02 02:50:01;;;;;;;18.67;9.75;;;0.00;99.90;;;;;;5036563;28;20198;-73
2023/03/02 02:52:28;;;;;;;17.60;10.63;;;0.00;99.90;;;;;;5047779;28;20297;-73
2023/03/02 02:54:57;;;;;;;15.95;8.77;;;-0.10;99.90;;;;;;5065438;28;20270;-74
2023/03/02 02:57:27;;;;;;;19.42;9.55;;;-0.10;99.90;;;;;;5061476;28;20217;-74
2023/03/02 02:59:59;;;;;;;15.43;9.75;;;-0.10;99.90;;;;;;5053341;28;20216;-74
2023/03/02 03:02:27;;;;;;;18.73;8.57;;;-0.10;99.90;;;;;;5053307;28;20208;-74
2023/03/02 03:05:01;;;;;;;16.95;9.48;;;-0.10;99.90;;;;;;5053041;28;20208;-74
2023/03/02 03:07:28;;;;;;;19.45;11.45;;;-0.10;99.90;;;;;;5053304;28;20366;-74
2023/03/02 03:09:59;;;;;;;18.67;9.95;;;-0.10;99.90;;;;;;5053195;28;20208;-74
2023/03/02 03:12:31;;;;;;;21.40;11.20;;;-0.20;99.90;;;;;;5053228;28;20256;-74
2023/03/02 03:15:01;;;;;;;17.48;11.23;;;-0.20;99.90;;;;;;5046700;28;20209;-74
2023/03/02 03:17:28;;;;;;;16.90;9.48;;;-0.20;99.90;;;;;;5033628;28;20301;-75
2023/03/02 03:20:05;;;;;;;22.48;11.70;;;-0.20;99.90;;;;;;5033210;28;20225;-74
2023/03/02 03:22:33;;;;;;;16.73;10.27;;;-0.20;99.90;;;;;;5033352;28;20236;-74
2023/03/02 03:25:00;;;;;;;14.40;9.55;;;-0.30;99.90;;;;;;5032772;28;20201;-74
2023/03/02 03:27:27;;;;;;;18.20;10.20;;;-0.30;99.90;;;;;;5032824;28;20229;-75
2023/03/02 03:29:54;;;;;;;15.10;10.02;;;-0.30;99.90;;;;;;5033189;28;20202;-74
2023/03/02 03:32:23;;;;;;;20.33;9.50;;;-0.30;99.90;;;;;;5033036;28;20619;-74
2023/03/02 03:34:50;;;;;;;15.98;9.20;;;-0.30;99.90;;;;;;5032423;28;20261;-74
2023/03/02 03:37:19;;;;;;;18.85;11.35;;;-0.40;99.90;;;;;;5032817;28;20253;-74
2023/03/02 03:39:47;;;;;;;16.67;11.02;;;-0.40;99.90;;;;;;5033114;28;20210;-74
2023/03/02 03:42:13;;;;;;;14.50;8.82;;;-0.30;99.90;;;;;;5032507;28;20202;-75
2023/03/02 03:44:40;;;;;;;19.38;10.48;;;-0.30;99.90;;;;;;5031913;28;20206;-75
2023/03/02 03:47:07;;;;;;;16.70;9.57;;;-0.40;99.90;;;;;;5039894;28;20666;-74
2023/03/02 03:49:35;;;;;;;21.42;11.40;;;-0.40;99.90;;;;;;5041445;28;20194;-74
2023/03/02 03:52:03;;;;;;;14.38;9.13;;;-0.40;99.90;;;;;;5032884;28;20256;-74
2023/03/02 03:54:30;;;;;;;21.98;11.88;;;-0.30;99.90;;;;;;5266493;22;20233;-73
2023/03/02 03:56:56;;;;;;;17.50;11.25;;;-0.30;99.90;;;;;;5084969;22;20600;-73
2023/03/02 03:59:25;;;;;;;15.90;10.48;;;-0.40;99.90;;;;;;5032343;28;20597;-73
2023/03/02 04:01:55;;;;;;;17.05;10.02;;;-0.40;99.90;;;;;;5032301;28;20599;-73
2023/03/02 04:04:23;;;;;;;17.27;10.38;;;-0.40;99.90;;;;;;5032802;28;20212;-73
2023/03/02 04:06:52;;;;;;;17.85;10.07;;;-0.40;99.90;;;;;;5032939;28;20619;-73
2023/03/02 04:09:19;;;;;;;15.63;9.00;;;-0.40;99.90;;;;;;5032226;28;20264;-75
2023/03/02 04:11:47;;;;;;;15.93;10.15;;;-0.40;99.90;;;;;;5025200;28;20581;-72
2023/03/02 04:14:15;;;;;;;17.50;10.10;;;-0.40;99.90;;;;;;5032486;28;20608;-74
2023/03/02 04:16:42;;;;;;;21.20;10.82;;;-0.50;99.90;;;;;;5031822;28;20206;-75
2023/03/02 04:19:10;;;;;;;15.95;9.60;;;-0.50;99.90;;;;;;5031423;28;20275;-74
2023/03/02 04:21:38;;;;;;;13.93;9.20;;;-0.60;99.90;;;;;;5031265;28;20653;-74
2023/03/02 04:24:07;;;;;;;23.88;11.85;;;-0.60;99.90;;;;;;5030496;28;20216;-74
2023/03/02 04:26:34;;;;;;;18.02;10.85;;;-0.50;99.90;;;;;;5030801;28;20241;-74
2023/03/02 04:29:01;;;;;;;23.33;11.52;;;-0.50;99.90;;;;;;5031200;28;20674;-75
2023/03/02 04:31:30;;;;;;;18.67;11.25;;;-0.50;99.90;;;;;;5030726;28;20202;-74
2023/03/02 04:33:56;;;;;;;21.67;10.23;;;-0.50;99.90;;;;;;5030633;28;20222;-74
2023/03/02 04:36:24;;;;;;;16.80;10.30;;;-0.50;99.90;;;;;;5000058;28;20207;-73
2023/03/02 04:38:51;;;;;;;19.75;10.77;;;-0.50;99.90;;;;;;4993617;28;20219;-74
2023/03/02 04:41:20;;;;;;;19.80;10.85;;;-0.50;99.90;;;;;;4998789;28;20655;-75
2023/03/02 04:43:46;;;;;;;13.65;8.70;;;-0.50;99.90;;;;;;4997525;28;20553;-75
2023/03/02 04:46:15;;;;;;;14.65;10.23;;;-0.50;99.90;;;;;;5000768;28;20566;-74
2023/03/02 04:48:42;;;;;;;16.13;9.07;;;-0.50;99.90;;;;;;4993238;28;20274;-74
2023/03/02 04:51:15;;;;;;;14.68;10.10;;;-0.50;99.90;;;;;;5007763;28;20315;-75
2023/03/02 04:53:42;;;;;;;16.95;11.02;;;-0.50;99.90;;;;;;5015224;28;20198;-74
2023/03/02 04:56:09;;;;;;;15.75;9.00;;;-0.60;99.90;;;;;;5030190;28;20652;-74
2023/03/02 04:58:37;;;;;;;23.13;9.35;;;-0.60;99.90;;;;;;5031091;28;20225;-74
2023/03/02 05:01:06;;;;;;;18.42;10.48;;;-0.60;99.90;;;;;;5032094;28;20209;-73
2023/03/02 05:03:32;;;;;;;17.45;9.65;;;-0.60;99.90;;;;;;5031318;28;20315;-74
2023/03/02 05:06:01;;;;;;;19.02;10.40;;;-0.60;99.90;;;;;;5031336;28;20205;-72
2023/03/02 05:08:27;;;;;;;18.90;10.13;;;-0.60;99.90;;;;;;5023459;28;20275;-73
2023/03/02 05:10:54;;;;;;;16.35;10.90;;;-0.60;99.90;;;;;;5030826;28;20210;-74
2023/03/02 05:13:21;;;;;;;20.83;9.88;;;-0.60;99.90;;;;;;5029959;28;20224;-74
2023/03/02 05:15:50;;;;;;;18.08;10.05;;;-0.60;99.90;;;;;;5031424;28;20573;-73
2023/03/02 05:18:17;;;;;;;23.02;11.30;;;-0.60;99.90;;;;;;5030229;28;20287;-74
2023/03/02 05:20:44;;;;;;;18.98;10.27;;;-0.60;99.90;;;;;;5031429;28;20639;-74
2023/03/02 05:23:22;;;;;;;17.17;11.43;;;-0.50;99.90;;;;;;5031030;28;20212;-72
2023/03/02 05:25:50;;;;;;;17.17;9.93;;;-0.50;99.90;;;;;;5008804;28;20305;-72
2023/03/02 05:28:16;;;;;;;15.32;9.50;;;-0.40;99.90;;;;;;5020827;28;20226;-71
2023/03/02 05:30:43;;;;;;;12.02;9.18;;;-0.40;99.90;;;;;;5015757;28;20567;-72
2023/03/02 05:33:12;;;;;;;15.50;8.65;;;-0.30;99.90;;;;;;5030136;28;20202;-71
2023/03/02 05:35:39;;;;;;;20.77;11.40;;;-0.20;99.90;;;;;;5006323;28;20225;-69
2023/03/02 05:38:05;;;;;;;18.23;10.68;;;-0.10;99.90;;;;;;5027817;28;20230;-73
2023/03/02 05:40:32;;;;;;;14.40;9.07;;;-0.10;99.90;;;;;;5030396;28;20222;-73
2023/03/02 05:42:59;;;;;;;17.83;10.23;;;-0.10;99.90;;;;;;5031060;28;20310;-72
2023/03/02 05:45:29;;;;;;;19.15;10.00;;;0.00;99.90;;;;;;5029629;28;20209;-73
2023/03/02 05:47:55;;;;;;;19.33;10.55;;;0.10;99.90;;;;;;5030255;28;20221;-72
2023/03/02 05:50:24;;;;;;;24.65;12.30;;;0.10;99.90;;;;;;5011816;28;20203;-72
2023/03/02 05:52:51;;;;;;;19.35;10.57;;;0.10;99.90;;;;;;5005391;28;20205;-72
2023/03/02 05:55:19;;;;;;;19.67;10.02;;;0.10;99.90;;;;;;5008850;28;20210;-71
2023/03/02 05:57:48;;;;;;;15.02;9.55;;;0.20;99.90;;;;;;5031615;28;20622;-73
2023/03/02 06:00:16;;;;;;;21.38;10.07;;;0.20;99.90;;;;;;5013292;28;20689;-72
2023/03/02 06:02:43;;;;;;;16.23;10.30;;;0.30;99.90;;;;;;5011188;28;20198;-71
2023/03/02 06:05:12;;;;;;;20.00;10.18;;;0.30;99.90;;;;;;5005925;28;20203;-71
2023/03/02 06:07:40;;;;;;;17.10;10.52;;;0.40;99.90;;;;;;5009910;28;20575;-71
2023/03/02 06:10:10;;;;;;;16.42;10.25;;;0.40;99.90;;;;;;5014329;28;20202;-71
2023/03/02 06:12:38;;;;;;;20.02;11.85;;;0.40;99.90;;;;;;5020562;28;20661;-71
2023/03/02 06:15:05;;;;;;;21.17;10.20;;;0.40;99.90;;;;;;5004691;28;20754;-72
2023/03/02 06:17:33;;;;;;;16.95;9.88;;;0.50;99.90;;;;;;5031284;28;20225;-71
2023/03/02 06:19:59;;;;;;;20.75;11.25;;;0.50;99.90;;;;;;5034529;28;20628;-72
2023/03/02 06:22:26;;;;;;;20.38;11.07;;;0.50;99.90;;;;;;5034351;28;20552;-72
2023/03/02 06:24:54;;;;;;;18.40;11.05;;;0.60;99.90;;;;;;5019310;28;20202;-71
2023/03/02 06:27:21;;;;;;;18.92;10.05;;;0.60;99.90;;;;;;5012659;28;20262;-71
2023/03/02 06:29:48;;;;;;;16.80;9.10;;;0.60;99.90;;;;;;5034688;28;20668;-71
2023/03/02 06:32:15;;;;;;;15.25;9.85;;;0.60;99.90;;;;;;5025380;28;20690;-71
2023/03/02 06:34:42;;;;;;;19.30;10.85;;;0.70;99.90;;;;;;5011448;28;20206;-70
2023/03/02 06:37:09;;;;;;;19.15;10.60;;;0.70;99.90;;;;;;5025717;28;20226;-71
2023/03/02 06:39:35;;;;;;;20.30;11.00;;;0.70;99.90;;;;;;5033225;28;20740;-72
2023/03/02 06:42:04;;;;;;;18.40;10.43;;;0.70;99.90;;;;;;5033059;28;20202;-72
2023/03/02 06:44:30;;;;;;;16.63;10.02;;;0.70;99.90;;;;;;5032479;28;20209;-72
2023/03/02 06:46:57;;;;;;;22.45;10.27;;;0.70;99.90;;;;;;5032984;28;20225;-73
2023/03/02 06:49:24;;;;;;;16.65;9.60;;;0.70;99.90;;;;;;5033102;28;20201;-72
2023/03/02 06:51:50;;;;;;;18.13;9.88;;;0.70;99.90;;;;;;5032854;28;20268;-72
2023/03/02 06:54:17;;;;;;;19.60;12.13;;;0.80;99.90;;;;;;5031989;28;20696;-72
2023/03/02 06:56:44;;;;;;;17.73;10.55;;;0.80;99.90;;;;;;5032658;28;20206;-72
2023/03/02 06:59:12;;;;;;;18.42;11.50;;;0.80;99.90;;;;;;5032506;28;20209;-72
2023/03/02 07:01:38;;;;;;;14.98;10.60;;;0.90;99.90;;;;;;5032773;28;20209;-72
2023/03/02 07:04:05;;;;;;;19.63;10.68;;;0.90;99.90;;;;;;5031893;28;20587;-72
2023/03/02 07:06:32;;;;;;;19.55;11.38;;;0.90;99.90;;;;;;5032622;28;20206;-73
2023/03/02 07:08:58;;;;;;;24.48;11.70;;;0.90;99.90;;;;;;5032612;28;20229;-73
2023/03/02 07:11:25;;;;;;;19.67;10.60;;;1.00;99.90;;;;;;5032691;28;20198;-72
2023/03/02 07:13:52;;;;;;;17.52;11.18;;;1.00;99.90;;;;;;5032222;28;20206;-71
2023/03/02 07:16:20;;;;;;;17.55;10.05;;;1.00;99.90;;;;;;5032380;28;20548;-73
2023/03/02 07:18:46;;;;;;;19.85;10.80;;;1.00;99.90;;;;;;5032459;28;20228;-74
2023/03/02 07:21:13;;;;;;;16.38;9.43;;;1.00;99.90;;;;;;5032024;28;20787;-73
2023/03/02 07:23:40;;;;;;;19.45;11.25;;;1.10;99.90;;;;;;5032151;28;20688;-73
2023/03/02 07:26:07;;;;;;;20.75;11.15;;;1.10;99.90;;;;;;5032153;28;20677;-73
2023/03/02 07:28:35;;;;;;;14.50;10.00;;;1.10;99.90;;;;;;5025186;28;20222;-73
2023/03/02 07:31:01;;;;;;;18.67;11.48;;;1.20;99.90;;;;;;5032215;28;20254;-73
2023/03/02 07:33:29;;;;;;;18.70;10.05;;;1.20;99.90;;;;;;5031882;28;20198;-73
2023/03/02 07:35:56;;;;;;;21.08;11.43;;;1.20;99.90;;;;;;5032134;28;20209;-73
2023/03/02 07:38:23;;;;;;;15.35;8.65;;;1.10;99.90;;;;;;5031870;28;20713;-73
2023/03/02 07:40:50;;;;;;;24.50;11.15;;;1.20;99.90;;;;;;5097302;22;20656;-70
2023/03/02 07:43:17;;;;;;;19.13;11.13;;;1.20;99.90;;;;;;5011283;28;20203;-70
2023/03/02 07:45:44;;;;;;;17.63;11.52;;;1.20;99.90;;;;;;5011588;28;20229;-69
2023/03/02 07:48:11;;;;;;;15.57;9.45;;;1.30;99.90;;;;;;5011153;28;20226;-69
2023/03/02 07:50:39;;;;;;;17.42;9.75;;;1.30;99.90;;;;;;5011477;28;20214;-69
2023/03/02 07:53:05;;;;;;;18.98;11.48;;;1.30;99.90;;;;;;5003349;28;20604;-70
2023/03/02 07:55:32;;;;;;;20.55;12.32;;;1.40;99.90;;;;;;5010976;28;20210;-69
2023/03/02 07:57:59;;;;;;;17.83;10.50;;;1.50;99.90;;;;;;5011531;28;20233;-69
2023/03/02 08:00:25;;;;;;;20.80;12.23;;;1.60;99.90;;;;;;5011137;28;20289;-70
2023/03/02 08:02:52;;;;;;;18.67;11.95;;;1.80;99.90;;;;;;5025190;28;20461;-69
2023/03/02 08:05:19;;;;;;;22.90;12.77;;;1.90;99.90;;;;;;5022369;28;20218;-69
2023/03/02 08:07:47;;;;;;;22.65;11.35;;;2.00;99.90;;;;;;5031095;28;20221;-69
2023/03/02 08:10:14;;;;;;;23.45;12.25;;;2.00;99.90;;;;;;5030630;28;20669;-69
2023/03/02 08:12:42;;;;;;;16.60;10.60;;;2.10;99.90;;;;;;5030929;28;20209;-69
2023/03/02 08:15:11;;;;;;;17.13;9.95;;;2.10;99.90;;;;;;5026071;28;20293;-70
2023/03/02 08:17:38;;;;;;;18.35;11.38;;;2.10;99.90;;;;;;5014436;28;20732;-69
2023/03/02 08:20:05;;;;;;;20.60;10.82;;;2.10;99.90;;;;;;5011196;28;20223;-69
2023/03/02 08:22:32;;;;;;;19.73;11.50;;;2.10;99.90;;;;;;5011064;28;20205;-68
2023/03/02 08:25:00;;;;;;;16.60;10.70;;;2.10;99.90;;;;;;5009580;28;20206;-69
2023/03/02 08:27:32;;;;;;;20.52;11.43;;;2.10;99.90;;;;;;4993704;28;20230;-69
2023/03/02 08:29:59;;;;;;;20.25;12.30;;;2.10;99.90;;;;;;4998914;28;20604;-69
2023/03/02 08:32:52;;;;;;;24.75;13.70;;;2.20;99.90;;;;;;5027995;28;20209;-70
2023/03/02 08:35:20;;;;;;;16.55;10.70;;;2.20;99.90;;;;;;5025991;28;20666;-69
2023/03/02 08:37:50;;;;;;;19.65;10.40;;;2.30;99.90;;;;;;5031627;28;20753;-70
2023/03/02 08:40:19;;;;;;;16.63;10.45;;;2.30;99.90;;;;;;5029515;28;20222;-69
2023/03/02 08:42:45;;;;;;;21.02;11.10;;;2.30;99.90;;;;;;5011315;28;20209;-69
2023/03/02 08:45:13;;;;;;;20.63;10.70;;;2.30;99.90;;;;;;5010946;28;20736;-69
2023/03/02 08:47:40;;;;;;;21.77;11.20;;;2.40;99.90;;;;;;5015004;28;20213;-69
2023/03/02 08:50:07;;;;;;;22.10;11.70;;;2.50;99.90;;;;;;5031019;28;20202;-69
2023/03/02 08:52:34;;;;;;;19.52;11.18;;;2.50;99.90;;;;;;5027856;28;20226;-69
2023/03/02 08:55:01;;;;;;;17.20;10.70;;;2.70;99.90;;;;;;5017048;28;20206;-69
2023/03/02 08:57:29;;;;;;;19.27;11.68;;;2.90;99.90;;;;;;5022815;28;20766;-69
2023/03/02 08:59:57;;;;;;;17.60;10.00;;;3.00;99.90;;;;;;5016999;28;20209;-69
2023/03/02 09:02:24;;;;;;;19.42;11.40;;;3.20;99.90;;;;;;5010921;28;20264;-69
2023/03/02 09:04:51;;;;;;;16.45;9.70;;;3.40;99.90;;;;;;5024756;28;20615;-69
2023/03/02 09:07:18;;;;;;;16.98;10.25;;;3.60;99.90;;;;;;5021776;28;20230;-69
2023/03/02 09:09:45;;;;;;;17.08;9.88;;;3.90;99.90;;;;;;5030156;28;20221;-69
2023/03/02 09:12:11;;;;;;;17.25;11.00;;;4.10;99.90;;;;;;5029640;28;20696;-69
2023/03/02 09:14:39;;;;;;;20.98;10.45;;;4.40;99.90;;;;;;5029685;28;20198;-68
2023/03/02 09:17:06;;;;;;;16.50;11.48;;;4.50;99.90;;;;;;5029390;28;20721;-69
2023/03/02 09:19:40;;;;;;;17.55;11.88;;;4.60;99.90;;;;;;5028068;28;20220;-69
2023/03/02 09:22:07;;;;;;;19.00;10.65;;;4.70;99.90;;;;;;5028994;28;20222;-69
2023/03/02 09:24:34;;;;;;;16.17;10.15;;;4.90;99.90;;;;;;5029129;28;20666;-69
2023/03/02 09:27:01;;;;;;;21.85;12.43;;;4.90;99.90;;;;;;5029606;28;20644;-69
2023/03/02 09:29:28;;;;;;;14.20;9.60;;;5.00;99.90;;;;;;5029915;28;20689;-70
2023/03/02 09:31:56;;;;;;;15.60;9.63;;;5.10;99.90;;;;;;5029792;28;20660;-69
2023/03/02 09:34:22;;;;;;;15.00;8.90;;;5.30;99.90;;;;;;5028141;28;20213;-70
2023/03/02 09:36:49;;;;;;;17.40;9.35;;;5.40;99.90;;;;;;5002454;28;20233;-69
2023/03/02 09:39:18;;;;;;;18.05;11.07;;;5.50;99.90;;;;;;5018324;28;20669;-70
2023/03/02 09:42:05;;;;;;;14.48;9.07;;;5.60;99.90;;;;;;5013410;28;20211;-69
2023/03/02 09:44:49;;;;;;;12.50;8.98;;;5.60;99.90;;;;;;4998542;28;20199;-70
2023/03/02 09:47:26;;;;;;;21.88;10.02;;;5.80;99.90;;;;;;4998799;28;20246;-69
2023/03/02 09:50:02;;;;;;;17.08;10.18;;;5.70;99.90;;;;;;4998834;28;20610;-69
2023/03/02 09:52:31;;;;;;;14.45;9.00;;;5.50;99.90;;;;;;4996416;28;20206;-69
2023/03/02 09:55:01;;;;;;;18.88;10.13;;;5.50;99.90;;;;;;5005739;28;20570;-70
2023/03/02 09:57:33;;;;;;;15.63;9.85;;;5.70;99.90;;;;;;5004244;28;21019;-70
2023/03/02 10:00:04;;;;;;;16.38;9.93;;;5.70;99.90;;;;;;5002659;28;20211;-69
2023/03/02 10:02:36;;;;;;;15.23;9.85;;;5.70;99.90;;;;;;4994643;28;20206;-69
2023/03/02 10:05:13;;;;;;;21.75;8.50;;;5.60;99.90;;;;;;5000465;28;20213;-70
2023/03/02 10:07:40;;;;;;;12.98;9.40;;;5.60;99.90;;;;;;5026062;28;20228;-69
2023/03/02 10:10:18;;;;;;;18.08;11.10;;;5.60;99.90;;;;;;5033713;28;20198;-69
2023/03/02 10:13:06;;;;;;;15.18;9.27;;;5.60;99.90;;;;;;4994422;28;20207;-69
2023/03/02 10:15:38;;;;;;;15.73;9.98;;;5.80;99.90;;;;;;4996694;28;20207;-68
2023/03/02 10:18:16;;;;;;;16.33;9.45;;;5.80;99.90;;;;;;4998699;28;20337;-69
2023/03/02 10:20:49;;;;;;;14.93;9.10;;;5.90;99.90;;;;;;4998200;28;20218;-69
2023/03/02 10:23:27;;;;;;;15.13;9.70;;;5.90;99.90;;;;;;5030024;28;20240;-69
2023/03/02 10:26:01;;;;;;;12.25;9.02;;;6.10;99.90;;;;;;5033590;28;20293;-68
2023/03/02 10:28:32;;;;;;;22.08;10.10;;;6.20;99.90;;;;;;5033503;28;20257;-70
2023/03/02 10:31:08;;;;;;;15.85;9.05;;;6.30;99.90;;;;;;5033178;28;20205;-69
2023/03/02 10:33:37;;;;;;;14.27;8.65;;;6.50;99.90;;;;;;5032881;28;20198;-69
2023/03/02 10:36:13;;;;;;;13.77;8.38;;;6.60;99.90;;;;;;5033288;28;20213;-70
2023/03/02 10:38:40;;;;;;;16.85;9.70;;;6.70;99.90;;;;;;5033337;28;20213;-70
2023/03/02 10:41:11;;;;;;;14.13;9.10;;;6.70;99.90;;;;;;5032814;28;20214;-69
2023/03/02 10:43:43;;;;;;;13.52;8.75;;;6.70;99.90;;;;;;5032728;28;20201;-69
2023/03/02 10:46:12;;;;;;;15.70;10.32;;;6.70;99.90;;;;;;5033059;28;20209;-69
2023/03/02 10:48:52;;;;;;;13.80;9.35;;;6.80;99.90;;;;;;5033109;28;20250;-69
2023/03/02 10:51:25;;;;;;;15.15;9.60;;;6.90;99.90;;;;;;5032878;28;20201;-69
2023/03/02 10:54:06;;;;;;;14.13;9.30;;;6.90;99.90;;;;;;5014173;28;20262;-69
2023/03/02 10:56:34;;;;;;;12.85;8.57;;;6.80;99.90;;;;;;5001785;28;20204;-70
2023/03/02 10:59:02;;;;;;;18.73;9.90;;;6.80;99.90;;;;;;5007663;28;20713;-70
2023/03/02 11:01:30;;;;;;;14.05;9.50;;;6.70;99.90;;;;;;5004575;28;20218;-70
2023/03/02 11:04:00;;;;;;;18.13;10.43;;;6.80;99.90;;;;;;4997892;28;20227;-69
2023/03/02 11:06:28;;;;;;;13.98;8.75;;;6.80;99.90;;;;;;5010772;28;20209;-70
2023/03/02 11:09:00;;;;;;;13.23;8.80;;;6.80;99.90;;;;;;4999313;28;20691;-69
2023/03/02 11:11:27;;;;;;;17.08;10.05;;;6.90;99.90;;;;;;4993028;28;20663;-69
2023/03/02 11:13:55;;;;;;;14.82;8.95;;;6.90;99.90;;;;;;4992856;28;20207;-69
2023/03/02 11:16:30;;;;;;;16.80;8.95;;;7.00;99.90;;;;;;5001145;28;20705;-69
2023/03/02 11:19:03;;;;;;;14.57;9.20;;;7.30;99.90;;;;;;4993104;28;20230;-69
2023/03/02 11:21:34;;;;;;;14.68;9.25;;;7.50;99.90;;;;;;5002549;28;20218;-70
2023/03/02 11:24:09;;;;;;;18.60;9.45;;;7.60;99.90;;;;;;5012016;28;20222;-70
2023/03/02 11:26:39;;;;;;;13.75;8.30;;;7.80;99.90;;;;;;5009938;28;20202;-69
2023/03/02 11:29:14;;;;;;;14.23;10.00;;;8.10;99.90;;;;;;5014383;28;20208;-69
2023/03/02 11:31:44;;;;;;;18.25;10.55;;;8.80;99.90;;;;;;5031941;28;20190;-70
2023/03/02 11:34:29;;;;;;;15.82;9.27;;;9.30;99.60;;;;;;5031698;28;20632;-70
2023/03/02 11:37:15;;;;;;;16.20;9.77;;;9.60;98.40;;;;;;5025751;28;20213;-68
2023/03/02 11:40:03;;;;;;;16.83;9.52;;;9.60;98.30;;;;;;5010512;28;20614;-69
2023/03/02 11:42:32;;;;;;;15.15;9.57;;;9.60;98.00;;;;;;5002646;28;20740;-69
2023/03/02 11:45:03;;;;;;;14.55;9.80;;;9.50;98.40;;;;;;5010163;28;20214;-69
2023/03/02 11:47:32;;;;;;;15.80;11.25;;;9.70;98.50;;;;;;5012870;28;20229;-68
2023/03/02 11:50:05;;;;;;;16.02;9.95;;;9.80;97.80;;;;;;5030459;28;20205;-69
2023/03/02 11:52:36;;;;;;;15.45;10.13;;;9.90;97.90;;;;;;5029789;28;20209;-69
2023/03/02 11:55:13;;;;;;;13.98;9.90;;;10.20;97.20;;;;;;5030359;28;20209;-67
2023/03/02 11:57:47;;;;;;;11.60;8.65;;;11.00;96.80;;;;;;5030852;28;20220;-68
2023/03/02 12:00:24;;;;;;;15.40;10.70;;;11.90;95.40;;;;;;5007071;28;20202;-68
2023/03/02 12:03:03;;;;;;;15.90;10.65;;;12.90;93.50;;;;;;4991323;28;20225;-68
2023/03/02 12:05:35;;;;;;;13.90;10.40;;;13.40;92.70;;;;;;5008607;28;20607;-68
2023/03/02 12:08:03;;;;;;;14.60;10.77;;;14.70;92.10;;;;;;5009765;28;20740;-69
2023/03/02 12:10:37;;;;;;;18.40;10.37;;;16.00;90.80;;;;;;5002323;28;20460;-70
2023/03/02 12:13:15;;;;;;;11.47;9.27;;;17.00;88.20;;;;;;5004056;28;20465;-69
2023/03/02 12:15:44;;;;;;;13.20;10.20;;;17.80;84.60;;;;;;5008494;28;20461;-69
2023/03/02 12:18:44;;;;;;;14.47;10.53;;;18.40;82.50;;;;;;5009693;28;20495;-70
2023/03/02 12:21:15;;;;;;;13.70;10.73;;;18.30;81.40;;;;;;5001750;28;20497;-68
2023/03/02 12:24:02;;;;;;;13.87;10.13;;;18.40;80.90;;;;;;5001651;28;20468;-69
2023/03/02 12:26:36;;;;;;;14.87;10.30;;;17.40;80.70;;;;;;5003566;28;20556;-69
2023/03/02 12:29:21;;;;;;;12.50;10.63;;;17.80;82.00;;;;;;5028834;28;20464;-68
2023/03/02 12:31:50;;;;;;;13.33;9.60;;;18.40;80.10;;;;;;5029855;28;20467;-69
2023/03/02 12:34:27;;;;;;;12.00;10.30;;;19.10;77.10;;;;;;5029334;28;20474;-68
2023/03/02 12:36:59;;;;;;;13.73;9.77;;;19.40;78.20;;;;;;4998067;28;20458;-69
2023/03/02 12:39:38;;;;;;;14.60;10.53;;;20.10;77.00;;;;;;5007260;28;20457;-69
2023/03/02 12:42:34;;;;;;;13.30;10.63;;;20.60;74.20;;;;;;5001298;28;20491;-69
2023/03/02 12:45:04;;;;;;;12.90;9.97;;;20.90;74.50;;;;;;5000745;28;20469;-68
2023/03/02 12:47:32;;;;;;;15.40;11.40;;;20.90;72.50;;;;;;5009614;28;21087;-69
2023/03/02 12:50:01;;;;;;;15.13;10.17;;;20.30;73.00;;;;;;4996437;28;20466;-69